createdAt,value
2023-04-25T00:02:09.837Z,10.70
2023-04-25T00:04:38.995Z,10.60
2023-04-25T00:07:07.344Z,10.60
2023-04-25T00:09:35.352Z,10.60
2023-04-25T00:12:03.557Z,10.50
2023-04-25T00:14:35.099Z,10.50
2023-04-25T00:17:03.599Z,10.50
2023-04-25T00:19:31.574Z,10.40
2023-04-25T00:21:59.810Z,10.40
2023-04-25T00:24:28.091Z,10.30
2023-04-25T00:26:56.107Z,10.30
2023-04-25T00:29:24.099Z,10.20
2023-04-25T00:31:53.506Z,10.10
2023-04-25T00:34:21.541Z,10.10
2023-04-25T00:36:49.585Z,9.90
2023-04-25T00:39:17.632Z,9.70
2023-04-25T00:41:46.684Z,9.60
2023-04-25T00:44:14.689Z,9.50
2023-04-25T00:46:42.981Z,9.50
2023-04-25T00:49:16.404Z,9.50
2023-04-25T00:51:45.059Z,9.50
2023-04-25T00:54:14.042Z,9.40
2023-04-25T00:56:42.303Z,9.40
2023-04-25T00:59:12.297Z,9.30
2023-04-25T01:01:41.271Z,9.10
2023-04-25T01:04:09.363Z,9.10
2023-04-25T01:06:39.355Z,9.00
2023-04-25T01:09:07.372Z,9.10
2023-04-25T01:11:35.520Z,9.10
2023-04-25T01:14:03.789Z,9.00
2023-04-25T01:16:32.353Z,9.00
2023-04-25T01:19:01.165Z,9.10
2023-04-25T01:21:31.779Z,9.20
2023-04-25T01:24:00.009Z,9.20
2023-04-25T01:26:28.307Z,9.20
2023-04-25T01:28:56.520Z,9.20
2023-04-25T01:31:24.899Z,9.20
2023-04-25T01:33:53.671Z,9.20
2023-04-25T01:36:22.417Z,9.30
2023-04-25T01:38:52.371Z,9.30
2023-04-25T01:41:20.831Z,9.30
2023-04-25T01:43:49.066Z,9.40
2023-04-25T01:46:17.489Z,9.40
2023-04-25T01:48:45.588Z,9.40
2023-04-25T01:51:14.085Z,9.50
2023-04-25T01:53:42.147Z,9.50
2023-04-25T01:56:11.464Z,9.50
2023-04-25T01:58:39.510Z,9.50
2023-04-25T02:01:07.580Z,9.40
2023-04-25T02:03:36.715Z,9.40
2023-04-25T02:06:05.369Z,9.40
2023-04-25T02:08:33.412Z,9.50
2023-04-25T02:11:01.381Z,9.40
2023-04-25T02:13:30.796Z,9.40
2023-04-25T02:15:59.406Z,9.40
2023-04-25T02:18:28.232Z,9.40
2023-04-25T02:20:56.375Z,9.40
2023-04-25T02:23:24.435Z,9.40
2023-04-25T02:25:52.710Z,9.30
2023-04-25T02:28:20.709Z,9.30
2023-04-25T02:30:50.054Z,9.30
2023-04-25T02:33:18.257Z,9.30
2023-04-25T02:35:46.481Z,9.30
2023-04-25T02:38:14.541Z,9.20
2023-04-25T02:40:42.727Z,9.20
2023-04-25T02:43:10.729Z,9.10
2023-04-25T02:45:38.793Z,9.10
2023-04-25T02:48:08.739Z,9.10
2023-04-25T02:50:36.763Z,9.00
2023-04-25T02:53:04.800Z,9.00
2023-04-25T02:55:32.757Z,9.10
2023-04-25T02:58:00.861Z,9.10
2023-04-25T03:00:28.942Z,9.10
2023-04-25T03:02:57.260Z,9.10
2023-04-25T03:05:26.814Z,9.20
2023-04-25T03:07:54.759Z,9.10
2023-04-25T03:10:22.743Z,9.20
2023-04-25T03:12:50.816Z,9.10
2023-04-25T03:15:19.671Z,9.20
2023-04-25T03:17:47.693Z,9.20
2023-04-25T03:20:15.724Z,9.20
2023-04-25T03:22:45.511Z,9.20
2023-04-25T03:25:13.523Z,9.10
2023-04-25T03:27:41.483Z,8.90
2023-04-25T03:30:10.116Z,8.90
2023-04-25T03:32:38.191Z,8.90
2023-04-25T03:35:07.431Z,8.90
2023-04-25T03:37:36.375Z,8.90
2023-04-25T03:40:06.933Z,8.80
2023-04-25T03:42:34.937Z,8.90
2023-04-25T03:45:03.048Z,8.90
2023-04-25T03:47:31.068Z,8.90
2023-04-25T03:49:59.077Z,8.90
2023-04-25T03:52:27.130Z,8.90
2023-04-25T03:54:55.126Z,8.90
2023-04-25T03:57:24.490Z,8.90
2023-04-25T03:59:52.472Z,8.90
2023-04-25T04:02:20.695Z,8.80
2023-04-25T04:04:49.001Z,8.80
2023-04-25T04:07:17.307Z,8.80
2023-04-25T04:09:45.325Z,8.80
2023-04-25T04:12:13.302Z,8.80
2023-04-25T04:14:42.741Z,8.70
2023-04-25T04:17:10.727Z,8.70
2023-04-25T04:19:38.816Z,8.60
2023-04-25T04:22:06.895Z,8.60
2023-04-25T04:24:34.909Z,8.60
2023-04-25T04:27:10.599Z,8.60
2023-04-25T04:29:38.682Z,8.70
2023-04-25T04:32:09.684Z,8.80
2023-04-25T04:34:38.428Z,8.80
2023-04-25T04:37:07.885Z,8.90
2023-04-25T04:39:36.191Z,8.90
2023-04-25T04:42:04.293Z,8.90
2023-04-25T04:44:33.654Z,8.90
2023-04-25T04:47:01.913Z,9.00
2023-04-25T04:49:31.440Z,9.00
2023-04-25T04:52:00.910Z,9.10
2023-04-25T04:54:29.072Z,9.10
2023-04-25T04:56:57.122Z,9.10
2023-04-25T04:59:25.213Z,9.10
2023-04-25T05:01:54.629Z,9.10
2023-04-25T05:04:22.793Z,9.10
2023-04-25T05:06:53.327Z,9.10
2023-04-25T05:09:21.325Z,9.10
2023-04-25T05:11:49.315Z,9.00
2023-04-25T05:14:17.980Z,8.90
2023-04-25T05:16:46.075Z,8.90
2023-04-25T05:19:14.180Z,9.00
2023-04-25T05:21:42.175Z,9.00
2023-04-25T05:24:11.573Z,9.10
2023-04-25T05:26:39.961Z,9.10
2023-04-25T05:29:08.154Z,9.10
2023-04-25T05:31:36.637Z,9.00
2023-04-25T05:34:04.782Z,8.90
2023-04-25T05:36:33.770Z,9.00
2023-04-25T05:39:01.768Z,9.10
2023-04-25T05:41:31.136Z,9.20
2023-04-25T05:43:59.619Z,9.30
2023-04-25T05:46:27.874Z,9.40
2023-04-25T05:48:56.180Z,9.40
2023-04-25T05:51:24.305Z,9.40
2023-04-25T05:53:52.591Z,9.40
2023-04-25T05:56:20.975Z,9.40
2023-04-25T05:58:50.358Z,9.60
2023-04-25T06:01:18.374Z,9.60
2023-04-25T06:03:46.677Z,9.60
2023-04-25T06:06:14.841Z,9.60
2023-04-25T06:08:43.010Z,9.80
2023-04-25T06:11:11.046Z,9.90
2023-04-25T06:13:39.067Z,9.90
2023-04-25T06:16:08.932Z,9.90
2023-04-25T06:18:36.988Z,10.00
2023-04-25T06:21:05.287Z,10.20
2023-04-25T06:23:33.318Z,10.20
2023-04-25T06:26:01.323Z,10.20
2023-04-25T06:28:29.318Z,10.20
2023-04-25T06:30:57.390Z,10.30
2023-04-25T06:33:27.719Z,10.50
2023-04-25T06:35:55.731Z,10.50
2023-04-25T06:38:23.758Z,10.60
2023-04-25T06:40:52.359Z,10.70
2023-04-25T06:43:20.365Z,10.90
2023-04-25T06:45:48.642Z,11.00
2023-04-25T06:48:16.778Z,10.90
2023-04-25T06:50:46.164Z,10.70
2023-04-25T06:53:14.196Z,10.90
2023-04-25T06:55:42.279Z,11.00
2023-04-25T06:58:10.290Z,11.00
2023-04-25T07:00:38.318Z,11.00
2023-04-25T07:03:06.570Z,11.30
2023-04-25T07:05:34.736Z,11.30
2023-04-25T07:08:04.693Z,11.20
2023-04-25T07:10:32.734Z,11.30
2023-04-25T07:13:00.729Z,11.30
2023-04-25T07:15:28.858Z,11.30
2023-04-25T07:17:56.832Z,11.30
2023-04-25T07:20:24.959Z,11.40
2023-04-25T07:22:52.982Z,11.50
2023-04-25T07:25:22.511Z,11.40
2023-04-25T07:27:50.802Z,11.50
2023-04-25T07:30:19.226Z,11.50
2023-04-25T07:32:47.482Z,11.30
2023-04-25T07:35:15.525Z,11.30
2023-04-25T07:37:43.559Z,11.30
2023-04-25T07:40:12.487Z,11.40
2023-04-25T07:42:42.066Z,11.50
2023-04-25T07:45:10.795Z,11.50
2023-04-25T07:47:39.454Z,11.40
2023-04-25T07:50:08.752Z,11.40
2023-04-25T07:52:37.009Z,11.40
2023-04-25T07:55:05.504Z,11.50
2023-04-25T07:57:33.560Z,11.40
2023-04-25T08:00:03.109Z,11.40
2023-04-25T08:02:31.343Z,11.20
2023-04-25T08:04:59.497Z,11.30
2023-04-25T08:07:27.691Z,11.50
2023-04-25T08:09:56.629Z,11.90
2023-04-25T08:12:24.633Z,12.10
2023-04-25T08:14:52.816Z,12.20
2023-04-25T08:17:22.603Z,12.30
2023-04-25T08:19:50.773Z,11.90
2023-04-25T08:22:18.800Z,11.90
2023-04-25T08:24:46.931Z,12.00
2023-04-25T08:27:14.939Z,11.80
2023-04-25T08:29:44.936Z,11.80
2023-04-25T08:32:12.926Z,12.00
2023-04-25T08:34:43.332Z,12.30
2023-04-25T08:37:11.803Z,12.60
2023-04-25T08:39:40.231Z,12.60
2023-04-25T08:42:09.696Z,12.70
2023-04-25T08:44:38.090Z,12.60
2023-04-25T08:47:07.627Z,12.60
2023-04-25T08:49:36.475Z,12.50
2023-04-25T08:52:07.525Z,12.50
2023-04-25T08:54:38.440Z,12.40
2023-04-25T08:57:08.794Z,12.50
2023-04-25T08:59:39.268Z,12.40
2023-04-25T09:02:07.488Z,12.40
2023-04-25T09:04:36.036Z,12.30
2023-04-25T09:07:06.051Z,12.40
2023-04-25T09:09:34.063Z,12.40
2023-04-25T09:12:02.907Z,12.30
2023-04-25T09:14:30.988Z,12.40
2023-04-25T09:17:01.428Z,12.30
2023-04-25T09:19:42.701Z,12.40
2023-04-25T09:22:12.098Z,12.40
2023-04-25T09:24:41.722Z,12.20
2023-04-25T09:27:11.836Z,12.30
2023-04-25T09:29:41.797Z,12.20
2023-04-25T09:32:14.980Z,12.00
2023-04-25T09:34:43.950Z,11.90
2023-04-25T09:37:13.705Z,11.80
2023-04-25T09:39:41.896Z,11.70
2023-04-25T09:42:11.884Z,11.50
2023-04-25T09:44:45.315Z,11.20
2023-04-25T09:47:14.625Z,11.00
2023-04-25T09:49:44.169Z,10.90
2023-04-25T09:52:16.973Z,10.90
2023-04-25T09:54:45.045Z,10.80
2023-04-25T09:57:14.966Z,10.70
2023-04-25T09:59:46.721Z,10.80
2023-04-25T10:02:15.905Z,10.60
2023-04-25T10:04:46.469Z,10.60
2023-04-25T10:07:16.403Z,10.60
2023-04-25T10:09:47.800Z,10.70
2023-04-25T10:12:16.263Z,10.70
2023-04-25T10:14:44.957Z,10.90
2023-04-25T10:17:13.516Z,11.00
2023-04-25T10:19:42.154Z,11.10
2023-04-25T10:22:15.309Z,11.30
2023-04-25T10:24:47.336Z,11.40
2023-04-25T10:27:15.548Z,11.50
2023-04-25T10:29:44.318Z,11.60
2023-04-25T10:32:12.733Z,11.70
2023-04-25T10:34:42.317Z,11.90
2023-04-25T10:37:15.378Z,12.10
2023-04-25T10:39:44.810Z,12.20
2023-04-25T10:42:14.028Z,12.30
2023-04-25T10:44:42.041Z,12.10
2023-04-25T10:47:11.650Z,12.00
2023-04-25T10:49:44.245Z,12.10
2023-04-25T10:52:21.043Z,12.20
2023-04-25T10:54:52.363Z,12.10
2023-04-25T10:57:34.401Z,12.00
2023-04-25T11:00:07.382Z,11.90
2023-04-25T11:02:39.765Z,11.90
2023-04-25T11:05:08.932Z,11.90
2023-04-25T11:07:41.046Z,11.90
2023-04-25T11:10:11.108Z,11.80
2023-04-25T11:12:39.238Z,11.70
2023-04-25T11:15:09.360Z,11.50
2023-04-25T11:17:37.411Z,11.50
2023-04-25T11:20:12.164Z,11.50
2023-04-25T11:22:41.972Z,11.40
2023-04-25T11:25:13.339Z,11.30
2023-04-25T11:27:51.220Z,11.30
2023-04-25T11:30:19.949Z,11.30
2023-04-25T11:32:48.162Z,11.30
2023-04-25T11:35:16.522Z,11.30
2023-04-25T11:37:45.896Z,11.30
2023-04-25T11:40:15.798Z,11.40
2023-04-25T11:42:47.313Z,11.40
2023-04-25T11:45:16.226Z,11.40
2023-04-25T11:47:44.550Z,11.30
2023-04-25T11:50:12.683Z,11.20
2023-04-25T11:52:42.018Z,11.20
2023-04-25T11:55:11.752Z,11.30
2023-04-25T11:57:43.092Z,11.30
2023-04-25T12:00:18.698Z,11.40
2023-04-25T12:02:49.021Z,11.40
2023-04-25T12:07:49.153Z,11.40
2023-04-25T12:10:19.127Z,11.50
2023-04-25T12:12:50.746Z,11.60
2023-04-25T12:15:21.335Z,11.50
2023-04-25T12:17:51.200Z,11.60
2023-04-25T12:20:22.309Z,11.50
2023-04-25T12:22:51.151Z,11.70
2023-04-25T12:25:37.455Z,11.70
2023-04-25T12:28:15.009Z,11.70
2023-04-25T12:31:00.368Z,11.70
2023-04-25T12:33:29.859Z,11.70
2023-04-25T12:35:58.635Z,11.80
2023-04-25T12:38:28.139Z,11.90
2023-04-25T12:40:56.725Z,12.10
2023-04-25T12:43:26.506Z,12.30
2023-04-25T12:45:56.025Z,12.50
2023-04-25T12:48:24.970Z,12.80
2023-04-25T12:50:54.432Z,12.80
2023-04-25T12:53:23.738Z,12.90
2023-04-25T12:55:52.822Z,12.90
2023-04-25T12:58:21.900Z,12.80
2023-04-25T13:00:52.196Z,12.50
2023-04-25T13:03:20.819Z,12.30
2023-04-25T13:05:49.204Z,12.20
2023-04-25T13:08:17.500Z,12.20
2023-04-25T13:10:46.067Z,12.00
2023-04-25T13:13:14.335Z,11.80
2023-04-25T13:15:43.770Z,11.70
2023-04-25T13:18:13.485Z,11.70
2023-04-25T13:20:42.410Z,11.70
2023-04-25T13:23:11.145Z,11.70
2023-04-25T13:25:39.198Z,11.80
2023-04-25T13:28:07.249Z,11.60
2023-04-25T13:30:37.076Z,11.70
2023-04-25T13:33:07.617Z,11.70
2023-04-25T13:35:38.863Z,11.70
2023-04-25T13:38:07.748Z,11.70
2023-04-25T13:40:38.106Z,11.80
2023-04-25T13:43:07.513Z,11.80
2023-04-25T13:45:35.785Z,11.90
2023-04-25T13:48:04.249Z,12.10
2023-04-25T13:50:35.261Z,12.10
2023-04-25T13:56:34.500Z,12.00
2023-04-25T13:59:08.419Z,11.80
2023-04-25T14:02:22.586Z,11.70
2023-04-25T14:05:28.766Z,11.50
2023-04-25T14:08:38.346Z,11.40
2023-04-25T14:11:20.725Z,11.30
2023-04-25T14:13:58.110Z,11.20
2023-04-25T14:16:34.503Z,11.00
2023-04-25T14:19:15.501Z,11.10
2023-04-25T14:21:53.305Z,11.20
2023-04-25T14:24:59.162Z,11.10
2023-04-25T14:27:35.291Z,11.20
2023-04-25T14:30:07.980Z,11.40
2023-04-25T14:33:01.684Z,11.50
2023-04-25T14:35:42.705Z,11.60
2023-04-25T14:38:11.336Z,11.80
2023-04-25T14:40:55.120Z,11.80
2023-04-25T14:44:02.569Z,11.80
2023-04-25T14:46:33.663Z,11.80
2023-04-25T14:49:39.723Z,11.60
2023-04-25T14:52:51.830Z,11.50
2023-04-25T14:58:31.467Z,11.60
2023-04-25T15:01:46.846Z,11.60
2023-04-25T15:04:54.572Z,11.40
2023-04-25T15:07:24.946Z,11.30
2023-04-25T15:10:00.933Z,11.30
2023-04-25T15:15:17.603Z,11.40
2023-04-25T15:18:06.549Z,11.30
2023-04-25T15:20:36.569Z,11.20
2023-04-25T15:23:05.914Z,11.10
2023-04-25T15:25:41.432Z,11.00
2023-04-25T15:28:17.401Z,11.00
2023-04-25T15:30:48.234Z,11.10
2023-04-25T15:33:17.677Z,11.10
2023-04-25T15:35:45.734Z,11.10
2023-04-25T15:38:13.912Z,11.10
2023-04-25T15:40:42.725Z,11.20
2023-04-25T15:43:15.950Z,11.20
2023-04-25T15:45:45.793Z,11.20
2023-04-25T15:48:14.093Z,11.20
2023-04-25T15:50:44.236Z,11.30
2023-04-25T15:53:12.510Z,11.30
2023-04-25T15:55:41.049Z,11.30
2023-04-25T15:58:11.317Z,11.30
2023-04-25T16:00:40.450Z,11.40
2023-04-25T16:03:09.652Z,11.20
2023-04-25T16:05:38.620Z,11.40
2023-04-25T16:08:08.240Z,11.40
2023-04-25T16:10:36.650Z,11.60
2023-04-25T16:13:04.639Z,11.60
2023-04-25T16:15:35.154Z,11.60
2023-04-25T16:18:06.824Z,11.50
2023-04-25T16:20:34.939Z,11.40
2023-04-25T16:23:03.014Z,11.30
2023-04-25T16:25:32.481Z,11.20
2023-04-25T16:28:00.556Z,11.20
2023-04-25T16:30:28.601Z,11.20
2023-04-25T16:32:57.799Z,11.20
2023-04-25T16:35:26.325Z,11.20
2023-04-25T16:37:55.088Z,11.20
2023-04-25T16:40:23.389Z,11.20
2023-04-25T16:42:52.944Z,11.20
2023-04-25T16:45:21.915Z,11.20
2023-04-25T16:47:49.983Z,11.20
2023-04-25T16:50:18.568Z,11.00
2023-04-25T16:52:46.694Z,11.00
2023-04-25T16:55:14.853Z,11.00
2023-04-25T16:57:42.932Z,11.10
2023-04-25T17:00:13.955Z,11.00
2023-04-25T17:02:42.468Z,10.90
2023-04-25T17:05:10.760Z,11.00
2023-04-25T17:07:38.821Z,11.00
2023-04-25T17:10:07.687Z,11.00
2023-04-25T17:12:35.789Z,11.00
2023-04-25T17:15:04.035Z,11.00
2023-04-25T17:17:33.982Z,11.00
2023-04-25T17:20:02.017Z,10.90
2023-04-25T17:22:30.221Z,10.80
2023-04-25T17:24:58.405Z,10.70
2023-04-25T17:27:26.870Z,10.70
2023-04-25T17:29:54.949Z,10.60
2023-04-25T17:32:23.014Z,10.60
2023-04-25T17:34:52.915Z,10.60
2023-04-25T17:37:21.227Z,10.60
2023-04-25T17:39:49.961Z,10.50
2023-04-25T17:42:18.232Z,10.50
2023-04-25T17:44:46.430Z,10.60
2023-04-25T17:47:14.542Z,10.60
2023-04-25T17:49:42.778Z,10.60
2023-04-25T17:52:12.604Z,10.60
2023-04-25T17:54:40.958Z,10.60
2023-04-25T17:57:09.380Z,10.60
2023-04-25T17:59:37.890Z,10.50
2023-04-25T18:02:09.607Z,10.40
2023-04-25T18:07:07.638Z,10.30
2023-04-25T18:09:37.334Z,10.30
2023-04-25T18:12:06.019Z,10.30
2023-04-25T18:14:36.930Z,10.20
2023-04-25T18:17:07.189Z,10.20
2023-04-25T18:19:35.615Z,10.20
2023-04-25T18:22:04.341Z,10.30
2023-04-25T18:24:33.543Z,10.30
2023-04-25T18:27:06.040Z,10.30
2023-04-25T18:29:34.606Z,10.20
2023-04-25T18:32:05.215Z,10.10
2023-04-25T18:34:37.794Z,10.20
2023-04-25T18:37:06.555Z,10.20
2023-04-25T18:39:34.987Z,10.10
2023-04-25T18:42:07.071Z,10.10
2023-04-25T18:44:40.120Z,10.10
2023-04-25T18:47:09.255Z,10.10
2023-04-25T18:49:38.645Z,10.10
2023-04-25T18:52:08.616Z,10.00
2023-04-25T18:54:39.238Z,10.00
2023-04-25T18:57:09.667Z,10.00
2023-04-25T18:59:37.953Z,10.10
2023-04-25T19:02:06.643Z,10.10
2023-04-25T19:04:37.705Z,10.00
2023-04-25T19:07:06.109Z,10.00
2023-04-25T19:09:34.397Z,10.00
2023-04-25T19:12:03.316Z,10.10
2023-04-25T19:14:34.411Z,10.00
2023-04-25T19:17:02.846Z,10.10
2023-04-25T19:19:31.384Z,10.10
2023-04-25T19:21:59.972Z,10.10
2023-04-25T19:24:28.629Z,10.10
2023-04-25T19:26:57.187Z,10.10
2023-04-25T19:29:28.919Z,10.10
2023-04-25T19:32:04.961Z,10.10
2023-04-25T19:34:37.568Z,10.00
2023-04-25T19:37:08.500Z,10.00
2023-04-25T19:39:40.410Z,10.00
2023-04-25T19:42:10.099Z,10.00
2023-04-25T19:44:39.989Z,10.00
2023-04-25T19:47:11.348Z,10.10
2023-04-25T19:49:41.776Z,10.00
2023-04-25T19:52:18.652Z,10.00
2023-04-25T19:54:48.887Z,10.00
2023-04-25T19:57:17.266Z,10.00
2023-04-25T19:59:48.439Z,9.90
2023-04-25T20:02:18.510Z,9.70
2023-04-25T20:04:46.827Z,9.70
2023-04-25T20:07:15.626Z,9.60
2023-04-25T20:09:44.251Z,9.50
2023-04-25T20:12:13.143Z,9.50
2023-04-25T20:17:13.890Z,9.50
2023-04-25T20:19:43.261Z,9.50
2023-04-25T20:22:11.259Z,9.50
2023-04-25T20:24:39.598Z,9.50
2023-04-25T20:27:07.681Z,9.40
2023-04-25T20:29:36.076Z,9.40
2023-04-25T20:32:04.245Z,9.40
2023-04-25T20:34:32.330Z,9.40
2023-04-25T20:37:02.862Z,9.40
2023-04-25T20:39:33.146Z,9.40
2023-04-25T20:42:01.517Z,9.30
2023-04-25T20:44:29.584Z,9.30
2023-04-25T20:46:57.903Z,9.20
2023-04-25T20:49:26.384Z,9.20
2023-04-25T20:51:54.381Z,9.10
2023-04-25T20:54:24.052Z,9.00
2023-04-25T20:56:52.437Z,8.90
2023-04-25T20:59:20.649Z,8.90
2023-04-25T21:01:48.851Z,8.90
2023-04-25T21:04:17.047Z,8.90
2023-04-25T21:06:45.197Z,8.90
2023-04-25T21:09:13.704Z,8.90
2023-04-25T21:11:43.311Z,9.00
2023-04-25T21:14:11.534Z,8.90
2023-04-25T21:16:40.738Z,8.90
2023-04-25T21:19:09.516Z,9.00
2023-04-25T21:21:37.554Z,8.90
2023-04-25T21:24:05.824Z,8.80
2023-04-25T21:26:34.988Z,8.80
2023-04-25T21:29:04.397Z,8.60
2023-04-25T21:31:32.473Z,8.60
2023-04-25T21:34:00.715Z,8.50
2023-04-25T21:36:29.071Z,8.60
2023-04-25T21:38:57.069Z,8.60
2023-04-25T21:41:25.719Z,8.50
2023-04-25T21:43:53.717Z,8.50
2023-04-25T21:46:25.383Z,8.50
2023-04-25T21:48:54.001Z,8.50
2023-04-25T21:51:22.741Z,8.50
2023-04-25T21:53:50.787Z,8.40
2023-04-25T21:56:18.795Z,8.40
2023-04-25T21:58:47.059Z,8.20
2023-04-25T22:01:15.801Z,8.10
2023-04-25T22:03:45.400Z,8.00
2023-04-25T22:06:13.595Z,7.90
2023-04-25T22:08:43.037Z,7.90
2023-04-25T22:11:11.010Z,7.70
2023-04-25T22:13:39.131Z,7.60
2023-04-25T22:16:11.812Z,7.60
2023-04-25T22:18:40.675Z,7.60
2023-04-25T22:21:10.243Z,7.60
2023-04-25T22:23:38.349Z,7.60
2023-04-25T22:26:07.612Z,7.60
2023-04-25T22:28:35.599Z,7.60
2023-04-25T22:31:03.751Z,7.60
2023-04-25T22:33:33.423Z,7.50
2023-04-25T22:36:02.059Z,7.50
2023-04-25T22:38:32.078Z,7.40
2023-04-25T22:41:00.088Z,7.40
2023-04-25T22:43:29.223Z,7.40
2023-04-25T22:45:58.837Z,7.50
2023-04-25T22:48:27.018Z,7.50
2023-04-25T22:51:03.428Z,7.50
2023-04-25T22:53:34.820Z,7.50
2023-04-25T22:56:03.003Z,7.40
2023-04-25T22:58:31.399Z,7.40
2023-04-25T23:01:00.777Z,7.30
2023-04-25T23:03:29.052Z,7.20
2023-04-25T23:05:57.165Z,7.20
2023-04-25T23:08:25.640Z,7.20
2023-04-25T23:10:55.222Z,7.10
2023-04-25T23:13:23.277Z,7.10
2023-04-25T23:15:51.796Z,7.00
2023-04-25T23:18:19.821Z,7.10
2023-04-25T23:20:48.080Z,7.10
2023-04-25T23:23:16.080Z,7.10
2023-04-25T23:25:46.018Z,7.20
2023-04-25T23:28:15.684Z,7.30
2023-04-25T23:30:43.691Z,7.20
2023-04-25T23:33:11.770Z,7.20
2023-04-25T23:35:39.736Z,7.20
2023-04-25T23:38:07.744Z,7.30
2023-04-25T23:40:35.752Z,7.40
2023-04-25T23:43:03.770Z,7.40
2023-04-25T23:45:33.134Z,7.40
2023-04-25T23:48:02.753Z,7.40
2023-04-25T23:50:30.946Z,7.20
2023-04-25T23:52:58.954Z,7.10
2023-04-25T23:55:27.172Z,7.10
2023-04-25T23:57:55.229Z,7.10
